sensor_id;sensor_type;location;lat;lon;timestamp;pressure;altitude;pressure_sealevel;temperature;humidity
23473;BME280;11909;52.516;13.564;2023-03-15T00:02:04;100100.03;;;2.28;78.18
23473;BME280;11909;52.516;13.564;2023-03-15T00:04:32;100111.22;;;2.32;77.53
23473;BME280;11909;52.516;13.564;2023-03-15T00:07:00;100113.72;;;2.21;77.71
23473;BME280;11909;52.516;13.564;2023-03-15T00:09:28;100120.03;;;2.27;77.82
23473;BME280;11909;52.516;13.564;2023-03-15T00:11:56;100121.09;;;2.26;78.19
23473;BME280;11909;52.516;13.564;2023-03-15T00:14:25;100124.78;;;2.20;78.66
23473;BME280;11909;52.516;13.564;2023-03-15T00:16:52;100124.41;;;2.28;77.88
23473;BME280;11909;52.516;13.564;2023-03-15T00:19:20;100130.91;;;2.15;78.85
23473;BME280;11909;52.516;13.564;2023-03-15T00:21:48;100136.09;;;2.17;78.60
23473;BME280;11909;52.516;13.564;2023-03-15T00:24:16;100138.81;;;2.17;78.72
23473;BME280;11909;52.516;13.564;2023-03-15T00:26:43;100152.69;;;2.20;77.82
23473;BME280;11909;52.516;13.564;2023-03-15T00:29:11;100153.53;;;2.09;78.65
23473;BME280;11909;52.516;13.564;2023-03-15T00:31:40;100151.88;;;2.08;78.47
23473;BME280;11909;52.516;13.564;2023-03-15T00:34:08;100160.03;;;1.96;79.58
23473;BME280;11909;52.516;13.564;2023-03-15T00:36:39;100169.06;;;2.13;79.13
23473;BME280;11909;52.516;13.564;2023-03-15T00:39:08;100157.06;;;2.09;78.84
23473;BME280;11909;52.516;13.564;2023-03-15T00:41:36;100174.97;;;2.10;78.57
23473;BME280;11909;52.516;13.564;2023-03-15T00:44:04;100177.91;;;1.97;78.64
23473;BME280;11909;52.516;13.564;2023-03-15T00:46:32;100187.31;;;2.06;78.93
23473;BME280;11909;52.516;13.564;2023-03-15T00:49:01;100180.50;;;2.04;78.43
23473;BME280;11909;52.516;13.564;2023-03-15T00:51:29;100188.84;;;2.02;78.93
23473;BME280;11909;52.516;13.564;2023-03-15T00:53:57;100189.56;;;1.97;78.93
23473;BME280;11909;52.516;13.564;2023-03-15T00:56:26;100199.34;;;1.98;78.36
23473;BME280;11909;52.516;13.564;2023-03-15T00:58:55;100188.50;;;1.98;79.26
23473;BME280;11909;52.516;13.564;2023-03-15T01:01:25;100192.88;;;1.88;79.09
23473;BME280;11909;52.516;13.564;2023-03-15T01:03:54;100208.38;;;1.92;79.37
23473;BME280;11909;52.516;13.564;2023-03-15T01:06:25;100200.03;;;1.94;78.70
23473;BME280;11909;52.516;13.564;2023-03-15T01:08:53;100205.94;;;1.91;78.67
23473;BME280;11909;52.516;13.564;2023-03-15T01:11:24;100205.56;;;1.99;78.16
23473;BME280;11909;52.516;13.564;2023-03-15T01:13:53;100202.50;;;1.95;78.33
23473;BME280;11909;52.516;13.564;2023-03-15T01:16:22;100207.56;;;1.92;78.64
23473;BME280;11909;52.516;13.564;2023-03-15T01:18:50;100217.09;;;1.94;78.58
23473;BME280;11909;52.516;13.564;2023-03-15T01:21:19;100221.91;;;1.92;78.71
23473;BME280;11909;52.516;13.564;2023-03-15T01:23:49;100227.09;;;1.94;78.02
23473;BME280;11909;52.516;13.564;2023-03-15T01:26:17;100232.25;;;1.83;79.36
23473;BME280;11909;52.516;13.564;2023-03-15T01:28:45;100230.50;;;1.89;79.00
23473;BME280;11909;52.516;13.564;2023-03-15T01:31:16;100238.03;;;1.87;79.33
23473;BME280;11909;52.516;13.564;2023-03-15T01:33:44;100236.59;;;1.84;79.32
23473;BME280;11909;52.516;13.564;2023-03-15T01:36:12;100243.56;;;1.92;79.15
23473;BME280;11909;52.516;13.564;2023-03-15T01:38:40;100244.97;;;1.83;79.47
23473;BME280;11909;52.516;13.564;2023-03-15T01:41:10;100235.22;;;1.82;79.38
23473;BME280;11909;52.516;13.564;2023-03-15T01:43:38;100245.56;;;1.85;79.44
23473;BME280;11909;52.516;13.564;2023-03-15T01:46:26;100239.91;;;1.63;80.02
23473;BME280;11909;52.516;13.564;2023-03-15T01:48:59;100258.63;;;1.76;79.50
23473;BME280;11909;52.516;13.564;2023-03-15T01:51:32;100256.16;;;1.75;79.47
23473;BME280;11909;52.516;13.564;2023-03-15T01:54:05;100248.25;;;1.73;79.51
23473;BME280;11909;52.516;13.564;2023-03-15T01:56:38;100261.69;;;1.68;79.78
23473;BME280;11909;52.516;13.564;2023-03-15T01:59:11;100254.16;;;1.70;80.29
23473;BME280;11909;52.516;13.564;2023-03-15T02:01:40;100256.59;;;1.71;80.41
23473;BME280;11909;52.516;13.564;2023-03-15T02:04:13;100246.72;;;1.65;80.34
23473;BME280;11909;52.516;13.564;2023-03-15T02:06:42;100250.84;;;1.68;80.39
23473;BME280;11909;52.516;13.564;2023-03-15T02:09:14;100248.25;;;1.61;80.25
23473;BME280;11909;52.516;13.564;2023-03-15T02:11:46;100256.94;;;1.63;80.44
23473;BME280;11909;52.516;13.564;2023-03-15T02:14:14;100266.81;;;1.57;80.76
23473;BME280;11909;52.516;13.564;2023-03-15T02:16:42;100264.34;;;1.56;81.06
23473;BME280;11909;52.516;13.564;2023-03-15T02:19:20;100263.75;;;1.42;81.64
23473;BME280;11909;52.516;13.564;2023-03-15T02:21:57;100271.50;;;1.50;82.64
23473;BME280;11909;52.516;13.564;2023-03-15T02:24:33;100272.31;;;1.39;83.19
23473;BME280;11909;52.516;13.564;2023-03-15T02:27:10;100275.53;;;1.17;84.17
23473;BME280;11909;52.516;13.564;2023-03-15T02:29:40;100277.03;;;1.13;84.79
23473;BME280;11909;52.516;13.564;2023-03-15T02:32:08;100283.88;;;1.16;84.56
23473;BME280;11909;52.516;13.564;2023-03-15T02:34:35;100286.16;;;1.00;85.21
23473;BME280;11909;52.516;13.564;2023-03-15T02:37:03;100292.69;;;0.92;85.35
23473;BME280;11909;52.516;13.564;2023-03-15T02:39:31;100284.22;;;0.89;86.54
23473;BME280;11909;52.516;13.564;2023-03-15T02:41:59;100287.53;;;0.91;85.86
23473;BME280;11909;52.516;13.564;2023-03-15T02:44:29;100292.84;;;0.97;86.02
23473;BME280;11909;52.516;13.564;2023-03-15T02:47:02;100291.94;;;0.85;86.10
23473;BME280;11909;52.516;13.564;2023-03-15T02:49:34;100299.00;;;0.86;87.00
23473;BME280;11909;52.516;13.564;2023-03-15T02:52:04;100297.66;;;0.77;86.86
23473;BME280;11909;52.516;13.564;2023-03-15T02:54:32;100300.19;;;0.90;85.86
23473;BME280;11909;52.516;13.564;2023-03-15T02:57:01;100304.41;;;0.86;86.93
23473;BME280;11909;52.516;13.564;2023-03-15T02:59:28;100311.69;;;0.85;86.71
23473;BME280;11909;52.516;13.564;2023-03-15T03:01:56;100311.91;;;0.84;86.12
23473;BME280;11909;52.516;13.564;2023-03-15T03:04:25;100313.41;;;0.80;86.17
23473;BME280;11909;52.516;13.564;2023-03-15T03:06:53;100319.63;;;0.80;86.63
23473;BME280;11909;52.516;13.564;2023-03-15T03:09:21;100315.66;;;0.64;87.38
23473;BME280;11909;52.516;13.564;2023-03-15T03:11:49;100320.53;;;0.55;87.08
23473;BME280;11909;52.516;13.564;2023-03-15T03:14:17;100332.78;;;0.58;87.77
23473;BME280;11909;52.516;13.564;2023-03-15T03:16:45;100322.81;;;0.59;87.60
23473;BME280;11909;52.516;13.564;2023-03-15T03:19:13;100324.88;;;0.56;88.19
23473;BME280;11909;52.516;13.564;2023-03-15T03:21:42;100330.81;;;0.65;88.47
23473;BME280;11909;52.516;13.564;2023-03-15T03:24:11;100341.47;;;0.60;88.58
23473;BME280;11909;52.516;13.564;2023-03-15T03:26:41;100336.53;;;0.57;88.38
23473;BME280;11909;52.516;13.564;2023-03-15T03:29:12;100338.25;;;0.51;88.98
23473;BME280;11909;52.516;13.564;2023-03-15T03:31:42;100338.47;;;0.50;88.78
23473;BME280;11909;52.516;13.564;2023-03-15T03:34:10;100345.69;;;0.56;89.02
23473;BME280;11909;52.516;13.564;2023-03-15T03:36:41;100343.19;;;0.54;89.05
23473;BME280;11909;52.516;13.564;2023-03-15T03:39:10;100351.00;;;0.44;89.29
23473;BME280;11909;52.516;13.564;2023-03-15T03:41:38;100351.13;;;0.49;89.66
23473;BME280;11909;52.516;13.564;2023-03-15T03:44:05;100349.28;;;0.50;89.87
23473;BME280;11909;52.516;13.564;2023-03-15T03:46:33;100347.19;;;0.52;89.05
23473;BME280;11909;52.516;13.564;2023-03-15T03:49:01;100351.88;;;0.56;89.35
23473;BME280;11909;52.516;13.564;2023-03-15T03:51:29;100352.13;;;0.55;89.62
23473;BME280;11909;52.516;13.564;2023-03-15T03:53:59;100357.28;;;0.56;89.56
23473;BME280;11909;52.516;13.564;2023-03-15T03:56:28;100364.78;;;0.54;89.34
23473;BME280;11909;52.516;13.564;2023-03-15T03:58:56;100363.38;;;0.52;89.77
23473;BME280;11909;52.516;13.564;2023-03-15T04:01:24;100360.28;;;0.48;89.60
23473;BME280;11909;52.516;13.564;2023-03-15T04:03:51;100363.59;;;0.50;90.37
23473;BME280;11909;52.516;13.564;2023-03-15T04:06:19;100372.75;;;0.49;90.37
23473;BME280;11909;52.516;13.564;2023-03-15T04:08:47;100371.63;;;0.57;89.66
23473;BME280;11909;52.516;13.564;2023-03-15T04:11:15;100376.44;;;0.55;89.69
23473;BME280;11909;52.516;13.564;2023-03-15T04:13:44;100376.66;;;0.53;89.86
23473;BME280;11909;52.516;13.564;2023-03-15T04:16:12;100381.75;;;0.43;90.23
23473;BME280;11909;52.516;13.564;2023-03-15T04:18:40;100387.44;;;0.53;89.92
23473;BME280;11909;52.516;13.564;2023-03-15T04:21:07;100401.13;;;0.59;89.62
23473;BME280;11909;52.516;13.564;2023-03-15T04:23:36;100401.94;;;0.59;89.17
23473;BME280;11909;52.516;13.564;2023-03-15T04:26:04;100401.19;;;0.52;89.26
23473;BME280;11909;52.516;13.564;2023-03-15T04:28:32;100407.91;;;0.42;89.77
23473;BME280;11909;52.516;13.564;2023-03-15T04:31:04;100409.78;;;0.42;90.47
23473;BME280;11909;52.516;13.564;2023-03-15T04:33:36;100416.84;;;0.43;90.41
23473;BME280;11909;52.516;13.564;2023-03-15T04:36:03;100410.22;;;0.39;90.07
23473;BME280;11909;52.516;13.564;2023-03-15T04:38:31;100406.63;;;0.45;89.93
23473;BME280;11909;52.516;13.564;2023-03-15T04:41:00;100410.69;;;0.36;90.13
23473;BME280;11909;52.516;13.564;2023-03-15T04:43:36;100403.44;;;0.30;90.40
23473;BME280;11909;52.516;13.564;2023-03-15T04:46:05;100403.94;;;0.20;90.74
23473;BME280;11909;52.516;13.564;2023-03-15T04:48:33;100411.97;;;0.26;91.33
23473;BME280;11909;52.516;13.564;2023-03-15T04:51:01;100415.53;;;0.27;90.39
23473;BME280;11909;52.516;13.564;2023-03-15T04:53:29;100410.78;;;0.22;90.90
23473;BME280;11909;52.516;13.564;2023-03-15T04:55:56;100409.28;;;0.26;91.51
23473;BME280;11909;52.516;13.564;2023-03-15T04:58:24;100414.72;;;0.20;91.63
23473;BME280;11909;52.516;13.564;2023-03-15T05:00:52;100425.03;;;0.30;90.94
23473;BME280;11909;52.516;13.564;2023-03-15T05:03:21;100440.28;;;0.17;91.59
23473;BME280;11909;52.516;13.564;2023-03-15T05:05:49;100437.16;;;0.20;91.40
23473;BME280;11909;52.516;13.564;2023-03-15T05:08:17;100438.66;;;0.16;91.64
23473;BME280;11909;52.516;13.564;2023-03-15T05:10:44;100441.94;;;0.18;90.97
23473;BME280;11909;52.516;13.564;2023-03-15T05:13:12;100450.38;;;0.28;90.34
23473;BME280;11909;52.516;13.564;2023-03-15T05:15:40;100451.06;;;0.24;90.61
23473;BME280;11909;52.516;13.564;2023-03-15T05:18:07;100460.97;;;0.30;90.51
23473;BME280;11909;52.516;13.564;2023-03-15T05:20:36;100465.53;;;0.30;90.11
23473;BME280;11909;52.516;13.564;2023-03-15T05:23:04;100471.97;;;0.28;90.09
23473;BME280;11909;52.516;13.564;2023-03-15T05:25:32;100479.81;;;0.37;89.60
23473;BME280;11909;52.516;13.564;2023-03-15T05:28:04;100485.97;;;0.44;89.26
23473;BME280;11909;52.516;13.564;2023-03-15T05:30:32;100494.53;;;0.41;89.41
23473;BME280;11909;52.516;13.564;2023-03-15T05:32:59;100496.84;;;0.37;89.59
23473;BME280;11909;52.516;13.564;2023-03-15T05:35:30;100495.81;;;0.32;90.03
23473;BME280;11909;52.516;13.564;2023-03-15T05:37:59;100495.19;;;0.36;89.83
23473;BME280;11909;52.516;13.564;2023-03-15T05:40:26;100505.03;;;0.24;90.83
23473;BME280;11909;52.516;13.564;2023-03-15T05:42:55;100510.00;;;0.27;90.57
23473;BME280;11909;52.516;13.564;2023-03-15T05:45:23;100515.84;;;0.24;90.85
23473;BME280;11909;52.516;13.564;2023-03-15T05:47:51;100514.78;;;0.25;90.99
23473;BME280;11909;52.516;13.564;2023-03-15T05:50:18;100513.75;;;0.26;90.75
23473;BME280;11909;52.516;13.564;2023-03-15T05:52:49;100519.31;;;0.31;91.04
23473;BME280;11909;52.516;13.564;2023-03-15T05:55:18;100522.16;;;0.36;90.32
23473;BME280;11909;52.516;13.564;2023-03-15T05:57:46;100524.78;;;0.50;90.14
23473;BME280;11909;52.516;13.564;2023-03-15T06:00:15;100539.75;;;0.46;89.61
23473;BME280;11909;52.516;13.564;2023-03-15T06:02:44;100545.59;;;0.42;90.22
23473;BME280;11909;52.516;13.564;2023-03-15T06:05:12;100541.00;;;0.50;89.17
23473;BME280;11909;52.516;13.564;2023-03-15T06:07:40;100550.81;;;0.37;90.36
23473;BME280;11909;52.516;13.564;2023-03-15T06:10:08;100547.69;;;0.40;90.78
23473;BME280;11909;52.516;13.564;2023-03-15T06:12:38;100546.44;;;0.43;90.79
23473;BME280;11909;52.516;13.564;2023-03-15T06:15:06;100545.81;;;0.41;90.47
23473;BME280;11909;52.516;13.564;2023-03-15T06:17:34;100554.06;;;0.53;90.08
23473;BME280;11909;52.516;13.564;2023-03-15T06:20:02;100563.97;;;0.59;89.55
23473;BME280;11909;52.516;13.564;2023-03-15T06:22:30;100572.91;;;0.60;89.48
23473;BME280;11909;52.516;13.564;2023-03-15T06:24:58;100577.00;;;0.69;89.21
23473;BME280;11909;52.516;13.564;2023-03-15T06:27:26;100580.16;;;0.66;89.08
23473;BME280;11909;52.516;13.564;2023-03-15T06:29:55;100585.88;;;0.76;88.80
23473;BME280;11909;52.516;13.564;2023-03-15T06:32:23;100591.72;;;0.73;89.00
23473;BME280;11909;52.516;13.564;2023-03-15T06:34:51;100591.03;;;0.84;88.69
23473;BME280;11909;52.516;13.564;2023-03-15T06:37:19;100603.38;;;0.99;87.64
23473;BME280;11909;52.516;13.564;2023-03-15T06:40:01;100605.31;;;0.92;87.55
23473;BME280;11909;52.516;13.564;2023-03-15T06:42:29;100615.19;;;1.05;87.12
23473;BME280;11909;52.516;13.564;2023-03-15T06:44:58;100620.53;;;1.11;86.16
23473;BME280;11909;52.516;13.564;2023-03-15T06:47:26;100619.50;;;1.12;86.00
23473;BME280;11909;52.516;13.564;2023-03-15T06:49:54;100625.22;;;1.23;85.80
23473;BME280;11909;52.516;13.564;2023-03-15T06:52:22;100627.94;;;1.23;85.29
23473;BME280;11909;52.516;13.564;2023-03-15T06:54:50;100625.94;;;1.11;86.46
23473;BME280;11909;52.516;13.564;2023-03-15T06:57:18;100621.53;;;1.17;87.65
23473;BME280;11909;52.516;13.564;2023-03-15T06:59:45;100625.72;;;1.13;87.84
23473;BME280;11909;52.516;13.564;2023-03-15T07:02:16;100626.94;;;1.17;89.41
23473;BME280;11909;52.516;13.564;2023-03-15T07:04:44;100628.75;;;1.23;89.87
23473;BME280;11909;52.516;13.564;2023-03-15T07:07:13;100634.38;;;1.22;90.82
23473;BME280;11909;52.516;13.564;2023-03-15T07:09:41;100632.38;;;1.17;91.62
23473;BME280;11909;52.516;13.564;2023-03-15T07:12:09;100631.22;;;1.25;91.66
23473;BME280;11909;52.516;13.564;2023-03-15T07:14:37;100633.44;;;1.35;91.25
23473;BME280;11909;52.516;13.564;2023-03-15T07:17:05;100627.88;;;1.29;91.63
23473;BME280;11909;52.516;13.564;2023-03-15T07:19:34;100631.19;;;1.32;92.33
23473;BME280;11909;52.516;13.564;2023-03-15T07:22:12;100633.84;;;1.38;92.76
23473;BME280;11909;52.516;13.564;2023-03-15T07:24:39;100635.53;;;1.58;91.57
23473;BME280;11909;52.516;13.564;2023-03-15T07:27:10;100635.38;;;1.53;90.92
23473;BME280;11909;52.516;13.564;2023-03-15T07:29:41;100636.72;;;1.62;91.57
23473;BME280;11909;52.516;13.564;2023-03-15T07:32:09;100642.44;;;1.72;91.57
23473;BME280;11909;52.516;13.564;2023-03-15T07:34:38;100639.16;;;1.89;90.67
23473;BME280;11909;52.516;13.564;2023-03-15T07:37:06;100642.00;;;2.13;87.86
23473;BME280;11909;52.516;13.564;2023-03-15T07:39:34;100649.66;;;2.16;87.47
23473;BME280;11909;52.516;13.564;2023-03-15T07:42:02;100654.03;;;2.17;86.85
23473;BME280;11909;52.516;13.564;2023-03-15T07:44:32;100656.06;;;2.22;86.33
23473;BME280;11909;52.516;13.564;2023-03-15T07:47:00;100660.44;;;2.23;86.16
23473;BME280;11909;52.516;13.564;2023-03-15T07:49:27;100664.66;;;2.19;86.38
23473;BME280;11909;52.516;13.564;2023-03-15T07:51:57;100671.94;;;2.18;86.03
23473;BME280;11909;52.516;13.564;2023-03-15T07:54:25;100677.28;;;2.25;85.13
23473;BME280;11909;52.516;13.564;2023-03-15T07:56:54;100681.41;;;2.09;85.87
23473;BME280;11909;52.516;13.564;2023-03-15T07:59:22;100681.94;;;2.18;84.67
23473;BME280;11909;52.516;13.564;2023-03-15T08:01:50;100689.34;;;2.10;84.18
23473;BME280;11909;52.516;13.564;2023-03-15T08:04:18;100687.75;;;2.03;85.17
23473;BME280;11909;52.516;13.564;2023-03-15T08:06:46;100691.94;;;2.17;84.90
23473;BME280;11909;52.516;13.564;2023-03-15T08:09:15;100690.34;;;2.28;83.27
23473;BME280;11909;52.516;13.564;2023-03-15T08:11:43;100700.00;;;2.24;83.58
23473;BME280;11909;52.516;13.564;2023-03-15T08:14:11;100699.72;;;2.13;84.38
23473;BME280;11909;52.516;13.564;2023-03-15T08:16:38;100695.41;;;2.24;84.66
23473;BME280;11909;52.516;13.564;2023-03-15T08:19:06;100689.47;;;2.15;85.05
23473;BME280;11909;52.516;13.564;2023-03-15T08:21:34;100704.81;;;2.22;84.43
23473;BME280;11909;52.516;13.564;2023-03-15T08:24:02;100704.00;;;2.21;84.36
23473;BME280;11909;52.516;13.564;2023-03-15T08:26:31;100709.91;;;2.30;83.09
23473;BME280;11909;52.516;13.564;2023-03-15T08:28:59;100705.47;;;2.36;81.70
23473;BME280;11909;52.516;13.564;2023-03-15T08:31:27;100705.47;;;2.36;82.85
23473;BME280;11909;52.516;13.564;2023-03-15T08:33:55;100717.38;;;2.35;83.62
23473;BME280;11909;52.516;13.564;2023-03-15T08:36:23;100725.34;;;2.48;81.04
23473;BME280;11909;52.516;13.564;2023-03-15T08:38:51;100730.78;;;2.48;81.14
23473;BME280;11909;52.516;13.564;2023-03-15T08:41:18;100731.38;;;2.50;82.56
23473;BME280;11909;52.516;13.564;2023-03-15T08:43:47;100729.25;;;2.52;83.05
23473;BME280;11909;52.516;13.564;2023-03-15T08:46:15;100739.44;;;2.57;82.06
23473;BME280;11909;52.516;13.564;2023-03-15T08:48:43;100742.41;;;2.67;81.44
23473;BME280;11909;52.516;13.564;2023-03-15T08:51:11;100757.03;;;2.66;78.83
23473;BME280;11909;52.516;13.564;2023-03-15T08:53:38;100754.16;;;2.61;80.41
23473;BME280;11909;52.516;13.564;2023-03-15T08:56:06;100748.88;;;2.66;80.77
23473;BME280;11909;52.516;13.564;2023-03-15T08:58:34;100764.81;;;2.75;80.05
23473;BME280;11909;52.516;13.564;2023-03-15T09:01:04;100760.09;;;2.70;80.16
23473;BME280;11909;52.516;13.564;2023-03-15T09:03:31;100771.09;;;2.75;79.18
23473;BME280;11909;52.516;13.564;2023-03-15T09:05:59;100781.63;;;2.65;79.09
23473;BME280;11909;52.516;13.564;2023-03-15T09:08:27;100774.41;;;2.58;79.10
23473;BME280;11909;52.516;13.564;2023-03-15T09:10:54;100776.13;;;2.53;80.21
23473;BME280;11909;52.516;13.564;2023-03-15T09:13:23;100783.38;;;2.59;80.87
23473;BME280;11909;52.516;13.564;2023-03-15T09:15:51;100789.84;;;2.58;80.76
23473;BME280;11909;52.516;13.564;2023-03-15T09:18:21;100796.69;;;2.61;80.68
23473;BME280;11909;52.516;13.564;2023-03-15T09:20:49;100803.84;;;2.55;79.51
23473;BME280;11909;52.516;13.564;2023-03-15T09:23:17;100797.13;;;2.57;80.52
23473;BME280;11909;52.516;13.564;2023-03-15T09:25:44;100795.28;;;2.58;81.75
23473;BME280;11909;52.516;13.564;2023-03-15T09:28:12;100808.88;;;2.70;79.77
23473;BME280;11909;52.516;13.564;2023-03-15T09:30:40;100810.75;;;2.69;79.90
23473;BME280;11909;52.516;13.564;2023-03-15T09:33:09;100811.16;;;2.73;80.03
23473;BME280;11909;52.516;13.564;2023-03-15T09:35:41;100812.19;;;2.72;80.15
23473;BME280;11909;52.516;13.564;2023-03-15T09:38:09;100809.69;;;2.89;80.58
23473;BME280;11909;52.516;13.564;2023-03-15T09:40:39;100825.81;;;2.84;80.74
23473;BME280;11909;52.516;13.564;2023-03-15T09:43:34;100833.72;;;2.85;80.13
23473;BME280;11909;52.516;13.564;2023-03-15T09:46:12;100837.41;;;2.91;79.60
23473;BME280;11909;52.516;13.564;2023-03-15T09:48:49;100841.78;;;2.92;79.30
23473;BME280;11909;52.516;13.564;2023-03-15T09:51:31;100839.31;;;2.91;78.51
23473;BME280;11909;52.516;13.564;2023-03-15T09:54:04;100839.50;;;2.89;78.53
23473;BME280;11909;52.516;13.564;2023-03-15T09:56:35;100848.72;;;2.88;78.66
23473;BME280;11909;52.516;13.564;2023-03-15T09:59:05;100848.25;;;2.91;80.02
23473;BME280;11909;52.516;13.564;2023-03-15T10:01:35;100846.97;;;2.94;80.39
23473;BME280;11909;52.516;13.564;2023-03-15T10:04:08;100861.28;;;3.01;77.80
23473;BME280;11909;52.516;13.564;2023-03-15T10:06:40;100870.91;;;3.15;75.40
23473;BME280;11909;52.516;13.564;2023-03-15T10:09:14;100875.50;;;3.15;75.55
23473;BME280;11909;52.516;13.564;2023-03-15T10:11:46;100875.88;;;3.19;74.47
23473;BME280;11909;52.516;13.564;2023-03-15T10:14:25;100877.81;;;3.30;74.05
23473;BME280;11909;52.516;13.564;2023-03-15T10:17:00;100889.63;;;3.36;73.44
23473;BME280;11909;52.516;13.564;2023-03-15T10:19:38;100883.75;;;3.39;72.54
23473;BME280;11909;52.516;13.564;2023-03-15T10:22:17;100882.22;;;3.43;71.11
23473;BME280;11909;52.516;13.564;2023-03-15T10:24:49;100879.75;;;3.41;73.72
23473;BME280;11909;52.516;13.564;2023-03-15T10:27:21;100887.56;;;3.50;72.44
23473;BME280;11909;52.516;13.564;2023-03-15T10:29:52;100891.25;;;3.55;70.54
23473;BME280;11909;52.516;13.564;2023-03-15T10:32:24;100892.59;;;3.65;70.06
23473;BME280;11909;52.516;13.564;2023-03-15T10:34:55;100897.38;;;3.81;70.12
23473;BME280;11909;52.516;13.564;2023-03-15T10:37:25;100901.38;;;4.33;69.81
23473;BME280;11909;52.516;13.564;2023-03-15T10:39:55;100902.91;;;4.29;67.25
23473;BME280;11909;52.516;13.564;2023-03-15T10:42:26;100903.75;;;4.29;67.76
23473;BME280;11909;52.516;13.564;2023-03-15T10:44:55;100908.13;;;4.42;67.61
23473;BME280;11909;52.516;13.564;2023-03-15T10:47:24;100903.28;;;4.56;68.62
23473;BME280;11909;52.516;13.564;2023-03-15T10:49:55;100913.78;;;4.77;66.69
23473;BME280;11909;52.516;13.564;2023-03-15T10:52:32;100909.31;;;4.82;66.61
23473;BME280;11909;52.516;13.564;2023-03-15T10:55:03;100909.91;;;4.72;67.03
23473;BME280;11909;52.516;13.564;2023-03-15T10:57:35;100915.69;;;4.64;65.86
23473;BME280;11909;52.516;13.564;2023-03-15T11:00:17;100908.72;;;4.56;68.71
23473;BME280;11909;52.516;13.564;2023-03-15T11:02:50;100906.97;;;4.62;69.40
23473;BME280;11909;52.516;13.564;2023-03-15T11:05:18;100902.34;;;4.63;69.04
23473;BME280;11909;52.516;13.564;2023-03-15T11:07:56;100907.19;;;4.49;68.17
23473;BME280;11909;52.516;13.564;2023-03-15T11:10:26;100915.91;;;4.51;68.36
23473;BME280;11909;52.516;13.564;2023-03-15T11:13:17;100924.16;;;4.32;67.03
23473;BME280;11909;52.516;13.564;2023-03-15T11:15:53;100912.81;;;4.35;67.71
23473;BME280;11909;52.516;13.564;2023-03-15T11:18:26;100921.25;;;4.45;66.78
23473;BME280;11909;52.516;13.564;2023-03-15T11:20:56;100918.53;;;4.57;67.48
23473;BME280;11909;52.516;13.564;2023-03-15T11:23:28;100924.44;;;4.78;66.29
23473;BME280;11909;52.516;13.564;2023-03-15T11:25:58;100919.00;;;4.90;65.77
23473;BME280;11909;52.516;13.564;2023-03-15T11:28:29;100934.69;;;5.24;64.46
23473;BME280;11909;52.516;13.564;2023-03-15T11:30:58;100938.31;;;5.29;63.77
23473;BME280;11909;52.516;13.564;2023-03-15T11:33:36;100926.50;;;5.24;63.91
23473;BME280;11909;52.516;13.564;2023-03-15T11:36:07;100942.31;;;5.39;62.14
23473;BME280;11909;52.516;13.564;2023-03-15T11:38:41;100943.22;;;5.56;60.74
23473;BME280;11909;52.516;13.564;2023-03-15T11:41:18;100926.94;;;5.73;62.53
23473;BME280;11909;52.516;13.564;2023-03-15T11:43:54;100923.75;;;5.94;63.48
23473;BME280;11909;52.516;13.564;2023-03-15T11:46:27;100920.53;;;5.97;62.62
23473;BME280;11909;52.516;13.564;2023-03-15T11:49:00;100923.41;;;6.02;61.75
23473;BME280;11909;52.516;13.564;2023-03-15T11:51:31;100923.81;;;6.11;61.31
23473;BME280;11909;52.516;13.564;2023-03-15T11:54:08;100915.75;;;6.16;62.44
23473;BME280;11909;52.516;13.564;2023-03-15T11:56:50;100923.56;;;6.12;61.70
23473;BME280;11909;52.516;13.564;2023-03-15T11:59:23;100934.81;;;6.16;60.71
23473;BME280;11909;52.516;13.564;2023-03-15T12:01:56;100941.19;;;5.93;59.37
23473;BME280;11909;52.516;13.564;2023-03-15T12:04:48;100927.97;;;5.84;62.25
23473;BME280;11909;52.516;13.564;2023-03-15T12:07:31;100931.63;;;5.90;62.01
23473;BME280;11909;52.516;13.564;2023-03-15T12:10:30;100933.25;;;6.20;60.44
23473;BME280;11909;52.516;13.564;2023-03-15T12:13:05;100942.88;;;6.11;58.54
23473;BME280;11909;52.516;13.564;2023-03-15T12:15:47;100943.66;;;5.94;59.07
23473;BME280;11909;52.516;13.564;2023-03-15T12:18:19;100953.13;;;5.92;59.13
23473;BME280;11909;52.516;13.564;2023-03-15T12:20:56;100948.72;;;5.73;59.06
23473;BME280;11909;52.516;13.564;2023-03-15T12:23:39;100947.63;;;5.45;60.25
23473;BME280;11909;52.516;13.564;2023-03-15T12:26:16;100937.88;;;5.62;62.24
23473;BME280;11909;52.516;13.564;2023-03-15T12:28:51;100947.22;;;5.66;59.47
23473;BME280;11909;52.516;13.564;2023-03-15T12:31:19;100943.63;;;5.77;59.57
23473;BME280;11909;52.516;13.564;2023-03-15T12:33:49;100949.84;;;5.89;56.64
23473;BME280;11909;52.516;13.564;2023-03-15T12:36:25;100955.13;;;6.08;56.35
23473;BME280;11909;52.516;13.564;2023-03-15T12:39:02;100948.09;;;6.29;57.70
23473;BME280;11909;52.516;13.564;2023-03-15T12:41:37;100949.59;;;6.37;57.80
23473;BME280;11909;52.516;13.564;2023-03-15T12:44:23;100953.06;;;6.32;57.86
23473;BME280;11909;52.516;13.564;2023-03-15T12:46:55;100943.00;;;6.50;60.83
23473;BME280;11909;52.516;13.564;2023-03-15T12:49:37;100949.69;;;6.77;58.75
23473;BME280;11909;52.516;13.564;2023-03-15T12:52:26;100951.47;;;6.88;59.15
23473;BME280;11909;52.516;13.564;2023-03-15T12:55:00;100965.34;;;7.03;54.97
23473;BME280;11909;52.516;13.564;2023-03-15T12:57:36;100971.31;;;7.00;52.81
23473;BME280;11909;52.516;13.564;2023-03-15T13:00:09;100975.28;;;6.93;53.49
23473;BME280;11909;52.516;13.564;2023-03-15T13:02:44;100963.22;;;6.88;53.09
23473;BME280;11909;52.516;13.564;2023-03-15T13:05:20;100977.88;;;6.82;52.86
23473;BME280;11909;52.516;13.564;2023-03-15T13:08:05;100975.78;;;6.89;52.07